Anacoco, Louisiana
Current Conditions -  °F | °C
As of 4:56 PM on Tuesday 21 Oct 2014 (Local Time) from KAQV Reporting Station
Clear Clear  
Wind Chill: 80°   Ceiling: Unl
Heat Index: 81°   Visibility: 10mi
Dew Point: 61°   Wind: 6mph
Humidity: 52%   Direction: 30°NNE
Pressure: 30"   Gusts: NA
Location:  31.25°N, 93.34°W
Report Text: KAQV 212156Z AUTO 03005KT 10SM CLR 27/16 A3000 RMK AO2 SLP157 T02670161
Loading
Personal Weather Stations






























Interactive Weather Map
Tropical Storm Tracking
New forecast layout! Learn more

10-Day Weather Forecast

Advertisements
Track Severe Weather on mobile